sensor_id;sensor_type;location;lat;lon;timestamp;temperature;humidity
28336;DHT22;15592;53.656;7.276;2022-11-20T00:02:26;3.20;99.90
28336;DHT22;15592;53.656;7.276;2022-11-20T00:04:51;3.20;99.90
28336;DHT22;15592;53.656;7.276;2022-11-20T00:07:17;3.10;99.90
28336;DHT22;15592;53.656;7.276;2022-11-20T00:09:42;3.10;99.90
28336;DHT22;15592;53.656;7.276;2022-11-20T00:12:08;3.10;99.90
28336;DHT22;15592;53.656;7.276;2022-11-20T00:14:34;3.10;99.90
28336;DHT22;15592;53.656;7.276;2022-11-20T00:16:59;3.10;99.90
28336;DHT22;15592;53.656;7.276;2022-11-20T00:19:25;3.10;99.90
28336;DHT22;15592;53.656;7.276;2022-11-20T00:21:51;3.10;99.90
28336;DHT22;15592;53.656;7.276;2022-11-20T00:24:19;3.10;99.90
28336;DHT22;15592;53.656;7.276;2022-11-20T00:26:44;3.10;99.90
28336;DHT22;15592;53.656;7.276;2022-11-20T00:29:10;3.10;99.90
28336;DHT22;15592;53.656;7.276;2022-11-20T00:31:36;3.10;99.90
28336;DHT22;15592;53.656;7.276;2022-11-20T00:34:01;3.10;99.90
28336;DHT22;15592;53.656;7.276;2022-11-20T00:36:28;3.10;99.90
28336;DHT22;15592;53.656;7.276;2022-11-20T00:38:56;3.10;99.90
28336;DHT22;15592;53.656;7.276;2022-11-20T00:41:23;3.10;99.90
28336;DHT22;15592;53.656;7.276;2022-11-20T00:43:50;3.10;99.90
28336;DHT22;15592;53.656;7.276;2022-11-20T00:46:18;3.10;99.90
28336;DHT22;15592;53.656;7.276;2022-11-20T00:48:44;3.10;99.90
28336;DHT22;15592;53.656;7.276;2022-11-20T00:51:15;3.10;99.90
28336;DHT22;15592;53.656;7.276;2022-11-20T00:53:41;3.10;99.90
28336;DHT22;15592;53.656;7.276;2022-11-20T00:56:10;3.10;99.90
28336;DHT22;15592;53.656;7.276;2022-11-20T00:58:38;3.10;99.90
28336;DHT22;15592;53.656;7.276;2022-11-20T01:01:07;3.10;99.90
28336;DHT22;15592;53.656;7.276;2022-11-20T01:03:41;3.00;99.90
28336;DHT22;15592;53.656;7.276;2022-11-20T01:06:31;3.10;99.90
28336;DHT22;15592;53.656;7.276;2022-11-20T01:08:57;3.00;99.90
28336;DHT22;15592;53.656;7.276;2022-11-20T01:11:28;3.10;99.90
28336;DHT22;15592;53.656;7.276;2022-11-20T01:13:56;3.10;99.90
28336;DHT22;15592;53.656;7.276;2022-11-20T01:16:25;3.10;99.90
28336;DHT22;15592;53.656;7.276;2022-11-20T01:18:53;3.10;99.90
28336;DHT22;15592;53.656;7.276;2022-11-20T01:21:24;3.00;99.90
28336;DHT22;15592;53.656;7.276;2022-11-20T01:23:51;3.10;99.90
28336;DHT22;15592;53.656;7.276;2022-11-20T01:26:24;3.00;99.90
28336;DHT22;15592;53.656;7.276;2022-11-20T01:28:50;3.00;99.90
28336;DHT22;15592;53.656;7.276;2022-11-20T01:31:21;3.00;99.90
28336;DHT22;15592;53.656;7.276;2022-11-20T01:33:49;3.00;99.90
28336;DHT22;15592;53.656;7.276;2022-11-20T01:36:17;3.00;99.90
28336;DHT22;15592;53.656;7.276;2022-11-20T01:38:43;3.00;99.90
28336;DHT22;15592;53.656;7.276;2022-11-20T01:41:09;3.00;99.90
28336;DHT22;15592;53.656;7.276;2022-11-20T01:43:36;3.00;99.90
28336;DHT22;15592;53.656;7.276;2022-11-20T01:48:43;3.00;99.90
28336;DHT22;15592;53.656;7.276;2022-11-20T01:51:19;3.00;99.90
28336;DHT22;15592;53.656;7.276;2022-11-20T01:53:46;3.00;99.90
28336;DHT22;15592;53.656;7.276;2022-11-20T01:56:13;3.00;99.90
28336;DHT22;15592;53.656;7.276;2022-11-20T01:58:47;3.00;99.90
28336;DHT22;15592;53.656;7.276;2022-11-20T02:01:13;3.00;99.90
28336;DHT22;15592;53.656;7.276;2022-11-20T02:03:39;3.00;99.90
28336;DHT22;15592;53.656;7.276;2022-11-20T02:08:32;3.00;99.90
28336;DHT22;15592;53.656;7.276;2022-11-20T02:10:58;3.00;99.90
28336;DHT22;15592;53.656;7.276;2022-11-20T02:13:24;3.00;99.90
28336;DHT22;15592;53.656;7.276;2022-11-20T02:16:17;3.00;99.90
28336;DHT22;15592;53.656;7.276;2022-11-20T02:18:44;2.90;99.90
28336;DHT22;15592;53.656;7.276;2022-11-20T02:21:24;2.90;99.90
28336;DHT22;15592;53.656;7.276;2022-11-20T02:24:13;2.90;99.90
28336;DHT22;15592;53.656;7.276;2022-11-20T02:26:59;2.90;99.90
28336;DHT22;15592;53.656;7.276;2022-11-20T02:29:41;2.90;99.90
28336;DHT22;15592;53.656;7.276;2022-11-20T02:32:18;2.90;99.90
28336;DHT22;15592;53.656;7.276;2022-11-20T02:34:44;2.90;99.90
28336;DHT22;15592;53.656;7.276;2022-11-20T02:37:10;2.90;99.90
28336;DHT22;15592;53.656;7.276;2022-11-20T02:39:35;2.90;99.90
28336;DHT22;15592;53.656;7.276;2022-11-20T02:42:01;2.90;99.90
28336;DHT22;15592;53.656;7.276;2022-11-20T02:44:27;2.90;99.90
28336;DHT22;15592;53.656;7.276;2022-11-20T02:46:53;2.90;99.90
28336;DHT22;15592;53.656;7.276;2022-11-20T02:49:18;2.90;99.90
28336;DHT22;15592;53.656;7.276;2022-11-20T02:51:44;2.90;99.90
28336;DHT22;15592;53.656;7.276;2022-11-20T02:54:09;2.90;99.90
28336;DHT22;15592;53.656;7.276;2022-11-20T02:56:38;2.80;99.90
28336;DHT22;15592;53.656;7.276;2022-11-20T02:59:03;2.70;99.90
28336;DHT22;15592;53.656;7.276;2022-11-20T03:01:29;2.60;99.90
28336;DHT22;15592;53.656;7.276;2022-11-20T03:03:55;2.60;99.90
28336;DHT22;15592;53.656;7.276;2022-11-20T03:06:21;2.70;99.90
28336;DHT22;15592;53.656;7.276;2022-11-20T03:08:47;2.60;99.90
28336;DHT22;15592;53.656;7.276;2022-11-20T03:11:13;2.60;99.90
28336;DHT22;15592;53.656;7.276;2022-11-20T03:13:38;2.60;99.90
28336;DHT22;15592;53.656;7.276;2022-11-20T03:16:15;2.70;99.90
28336;DHT22;15592;53.656;7.276;2022-11-20T03:18:41;2.70;99.90
28336;DHT22;15592;53.656;7.276;2022-11-20T03:21:08;2.80;99.90
28336;DHT22;15592;53.656;7.276;2022-11-20T03:23:34;2.80;99.90
28336;DHT22;15592;53.656;7.276;2022-11-20T03:26:18;2.80;99.90
28336;DHT22;15592;53.656;7.276;2022-11-20T03:28:52;2.80;99.90
28336;DHT22;15592;53.656;7.276;2022-11-20T03:31:24;2.80;99.90
28336;DHT22;15592;53.656;7.276;2022-11-20T03:33:50;2.80;99.90
28336;DHT22;15592;53.656;7.276;2022-11-20T03:36:17;2.80;99.90
28336;DHT22;15592;53.656;7.276;2022-11-20T03:38:43;2.80;99.90
28336;DHT22;15592;53.656;7.276;2022-11-20T03:41:11;2.80;99.90
28336;DHT22;15592;53.656;7.276;2022-11-20T03:43:38;2.80;99.90
28336;DHT22;15592;53.656;7.276;2022-11-20T03:46:04;2.80;99.90
28336;DHT22;15592;53.656;7.276;2022-11-20T03:48:30;2.80;99.90
28336;DHT22;15592;53.656;7.276;2022-11-20T03:53:34;2.80;99.90
28336;DHT22;15592;53.656;7.276;2022-11-20T03:55:59;2.80;99.90
28336;DHT22;15592;53.656;7.276;2022-11-20T03:58:25;2.80;99.90
28336;DHT22;15592;53.656;7.276;2022-11-20T04:00:51;2.80;99.90
28336;DHT22;15592;53.656;7.276;2022-11-20T04:03:16;2.80;99.90
28336;DHT22;15592;53.656;7.276;2022-11-20T04:05:42;2.80;99.90
28336;DHT22;15592;53.656;7.276;2022-11-20T04:08:07;2.80;99.90
28336;DHT22;15592;53.656;7.276;2022-11-20T04:10:33;2.80;99.90
28336;DHT22;15592;53.656;7.276;2022-11-20T04:12:59;2.80;99.90
28336;DHT22;15592;53.656;7.276;2022-11-20T04:15:24;2.90;99.90
28336;DHT22;15592;53.656;7.276;2022-11-20T04:17:50;2.90;99.90
28336;DHT22;15592;53.656;7.276;2022-11-20T04:20:16;2.90;99.90
28336;DHT22;15592;53.656;7.276;2022-11-20T04:22:41;2.90;99.90
28336;DHT22;15592;53.656;7.276;2022-11-20T04:25:07;2.90;99.90
28336;DHT22;15592;53.656;7.276;2022-11-20T04:27:33;3.00;99.90
28336;DHT22;15592;53.656;7.276;2022-11-20T04:29:59;3.00;99.90
28336;DHT22;15592;53.656;7.276;2022-11-20T04:32:24;3.00;99.90
28336;DHT22;15592;53.656;7.276;2022-11-20T04:34:50;3.00;99.90
28336;DHT22;15592;53.656;7.276;2022-11-20T04:37:15;3.00;99.90
28336;DHT22;15592;53.656;7.276;2022-11-20T04:39:41;3.00;99.90
28336;DHT22;15592;53.656;7.276;2022-11-20T04:42:08;3.00;99.90
28336;DHT22;15592;53.656;7.276;2022-11-20T04:44:56;3.00;99.90
28336;DHT22;15592;53.656;7.276;2022-11-20T04:47:22;3.00;99.90
28336;DHT22;15592;53.656;7.276;2022-11-20T04:49:48;3.00;99.90
28336;DHT22;15592;53.656;7.276;2022-11-20T04:52:13;2.90;99.90
28336;DHT22;15592;53.656;7.276;2022-11-20T04:54:39;3.00;99.90
28336;DHT22;15592;53.656;7.276;2022-11-20T04:57:04;3.00;99.90
28336;DHT22;15592;53.656;7.276;2022-11-20T04:59:30;3.00;99.90
28336;DHT22;15592;53.656;7.276;2022-11-20T05:01:56;3.00;99.90
28336;DHT22;15592;53.656;7.276;2022-11-20T05:04:21;3.00;99.90
28336;DHT22;15592;53.656;7.276;2022-11-20T05:06:47;3.00;99.90
28336;DHT22;15592;53.656;7.276;2022-11-20T05:09:13;3.00;99.90
28336;DHT22;15592;53.656;7.276;2022-11-20T05:11:39;2.90;99.90
28336;DHT22;15592;53.656;7.276;2022-11-20T05:14:04;2.90;99.90
28336;DHT22;15592;53.656;7.276;2022-11-20T05:16:30;2.90;99.90
28336;DHT22;15592;53.656;7.276;2022-11-20T05:18:56;2.90;99.90
28336;DHT22;15592;53.656;7.276;2022-11-20T05:21:22;2.80;99.90
28336;DHT22;15592;53.656;7.276;2022-11-20T05:23:48;2.80;99.90
28336;DHT22;15592;53.656;7.276;2022-11-20T05:26:17;2.80;99.90
28336;DHT22;15592;53.656;7.276;2022-11-20T05:28:43;2.80;99.90
28336;DHT22;15592;53.656;7.276;2022-11-20T05:31:11;2.90;99.90
28336;DHT22;15592;53.656;7.276;2022-11-20T05:33:40;2.90;99.90
28336;DHT22;15592;53.656;7.276;2022-11-20T05:36:06;2.90;99.90
28336;DHT22;15592;53.656;7.276;2022-11-20T05:38:32;2.90;99.90
28336;DHT22;15592;53.656;7.276;2022-11-20T05:41:13;3.00;99.90
28336;DHT22;15592;53.656;7.276;2022-11-20T05:43:40;3.00;99.90
28336;DHT22;15592;53.656;7.276;2022-11-20T05:46:08;3.00;99.90
28336;DHT22;15592;53.656;7.276;2022-11-20T05:48:34;3.00;99.90
28336;DHT22;15592;53.656;7.276;2022-11-20T05:51:02;3.00;99.90
28336;DHT22;15592;53.656;7.276;2022-11-20T05:53:28;3.00;99.90
28336;DHT22;15592;53.656;7.276;2022-11-20T05:56:02;3.10;99.90
28336;DHT22;15592;53.656;7.276;2022-11-20T05:58:28;3.10;99.90
28336;DHT22;15592;53.656;7.276;2022-11-20T06:00:54;3.10;99.90
28336;DHT22;15592;53.656;7.276;2022-11-20T06:03:20;3.10;99.90
28336;DHT22;15592;53.656;7.276;2022-11-20T06:05:45;3.10;99.90
28336;DHT22;15592;53.656;7.276;2022-11-20T06:08:11;3.10;99.90
28336;DHT22;15592;53.656;7.276;2022-11-20T06:10:37;3.10;99.90
28336;DHT22;15592;53.656;7.276;2022-11-20T06:13:02;3.10;99.90
28336;DHT22;15592;53.656;7.276;2022-11-20T06:15:28;3.10;99.90
28336;DHT22;15592;53.656;7.276;2022-11-20T06:17:54;3.10;99.90
28336;DHT22;15592;53.656;7.276;2022-11-20T06:20:21;3.10;99.90
28336;DHT22;15592;53.656;7.276;2022-11-20T06:22:47;3.00;99.90
28336;DHT22;15592;53.656;7.276;2022-11-20T06:25:13;3.00;99.90
28336;DHT22;15592;53.656;7.276;2022-11-20T06:27:38;3.00;99.90
28336;DHT22;15592;53.656;7.276;2022-11-20T06:30:04;3.00;99.90
28336;DHT22;15592;53.656;7.276;2022-11-20T06:32:30;2.90;99.90
28336;DHT22;15592;53.656;7.276;2022-11-20T06:34:56;2.90;99.90
28336;DHT22;15592;53.656;7.276;2022-11-20T06:37:21;2.80;99.90
28336;DHT22;15592;53.656;7.276;2022-11-20T06:39:47;2.80;99.90
28336;DHT22;15592;53.656;7.276;2022-11-20T06:42:12;2.70;99.90
28336;DHT22;15592;53.656;7.276;2022-11-20T06:44:38;2.60;99.90
28336;DHT22;15592;53.656;7.276;2022-11-20T06:47:04;2.60;99.90
28336;DHT22;15592;53.656;7.276;2022-11-20T06:49:29;2.60;99.90
28336;DHT22;15592;53.656;7.276;2022-11-20T06:51:55;2.60;99.90
28336;DHT22;15592;53.656;7.276;2022-11-20T06:54:21;2.60;99.90
28336;DHT22;15592;53.656;7.276;2022-11-20T06:56:49;2.60;99.90
28336;DHT22;15592;53.656;7.276;2022-11-20T06:59:15;2.60;99.90
28336;DHT22;15592;53.656;7.276;2022-11-20T07:01:41;2.60;99.90
28336;DHT22;15592;53.656;7.276;2022-11-20T07:04:06;2.60;99.90
28336;DHT22;15592;53.656;7.276;2022-11-20T07:06:32;2.50;99.90
28336;DHT22;15592;53.656;7.276;2022-11-20T07:08:57;2.50;99.90
28336;DHT22;15592;53.656;7.276;2022-11-20T07:11:23;2.50;99.90
28336;DHT22;15592;53.656;7.276;2022-11-20T07:13:49;2.40;99.90
28336;DHT22;15592;53.656;7.276;2022-11-20T07:16:16;2.40;99.90
28336;DHT22;15592;53.656;7.276;2022-11-20T07:18:41;2.40;99.90
28336;DHT22;15592;53.656;7.276;2022-11-20T07:21:09;2.40;99.90
28336;DHT22;15592;53.656;7.276;2022-11-20T07:23:35;2.40;99.90
28336;DHT22;15592;53.656;7.276;2022-11-20T07:26:09;2.40;99.90
28336;DHT22;15592;53.656;7.276;2022-11-20T07:28:35;2.40;99.90
28336;DHT22;15592;53.656;7.276;2022-11-20T07:31:01;2.40;99.90
28336;DHT22;15592;53.656;7.276;2022-11-20T07:33:27;2.40;99.90
28336;DHT22;15592;53.656;7.276;2022-11-20T07:35:52;2.50;99.90
28336;DHT22;15592;53.656;7.276;2022-11-20T07:38:18;2.50;99.90
28336;DHT22;15592;53.656;7.276;2022-11-20T07:40:43;2.50;99.90
28336;DHT22;15592;53.656;7.276;2022-11-20T07:43:09;2.50;99.90
28336;DHT22;15592;53.656;7.276;2022-11-20T07:45:35;2.50;99.90
28336;DHT22;15592;53.656;7.276;2022-11-20T07:48:00;2.50;99.90
28336;DHT22;15592;53.656;7.276;2022-11-20T07:50:26;2.50;99.90
28336;DHT22;15592;53.656;7.276;2022-11-20T07:52:52;2.50;99.90
28336;DHT22;15592;53.656;7.276;2022-11-20T07:55:18;2.50;99.90
28336;DHT22;15592;53.656;7.276;2022-11-20T07:57:43;2.50;99.90
28336;DHT22;15592;53.656;7.276;2022-11-20T08:00:10;2.50;99.90
28336;DHT22;15592;53.656;7.276;2022-11-20T08:02:38;2.60;99.90
28336;DHT22;15592;53.656;7.276;2022-11-20T08:05:04;2.60;99.90
28336;DHT22;15592;53.656;7.276;2022-11-20T08:07:35;2.60;99.90
28336;DHT22;15592;53.656;7.276;2022-11-20T08:10:02;2.60;99.90
28336;DHT22;15592;53.656;7.276;2022-11-20T08:12:28;2.60;99.90
28336;DHT22;15592;53.656;7.276;2022-11-20T08:15:12;2.60;99.90
28336;DHT22;15592;53.656;7.276;2022-11-20T08:17:38;2.60;99.90
28336;DHT22;15592;53.656;7.276;2022-11-20T08:20:03;2.70;99.90
28336;DHT22;15592;53.656;7.276;2022-11-20T08:22:29;2.70;99.90
28336;DHT22;15592;53.656;7.276;2022-11-20T08:24:55;2.70;99.90
28336;DHT22;15592;53.656;7.276;2022-11-20T08:27:20;2.70;99.90
28336;DHT22;15592;53.656;7.276;2022-11-20T08:29:46;2.70;99.90
28336;DHT22;15592;53.656;7.276;2022-11-20T08:32:11;2.70;99.90
28336;DHT22;15592;53.656;7.276;2022-11-20T08:34:37;2.70;99.90
28336;DHT22;15592;53.656;7.276;2022-11-20T08:37:03;2.80;99.90
28336;DHT22;15592;53.656;7.276;2022-11-20T08:39:28;2.70;99.90
28336;DHT22;15592;53.656;7.276;2022-11-20T08:41:54;2.80;99.90
28336;DHT22;15592;53.656;7.276;2022-11-20T08:44:20;2.80;99.90
28336;DHT22;15592;53.656;7.276;2022-11-20T08:46:45;2.70;99.90
28336;DHT22;15592;53.656;7.276;2022-11-20T08:49:13;2.80;99.90
28336;DHT22;15592;53.656;7.276;2022-11-20T08:51:40;2.80;99.90
28336;DHT22;15592;53.656;7.276;2022-11-20T08:54:06;2.80;99.90
28336;DHT22;15592;53.656;7.276;2022-11-20T08:56:32;2.80;99.90
28336;DHT22;15592;53.656;7.276;2022-11-20T08:58:58;2.90;99.90
28336;DHT22;15592;53.656;7.276;2022-11-20T09:01:28;2.90;99.90
28336;DHT22;15592;53.656;7.276;2022-11-20T09:03:57;3.00;99.90
28336;DHT22;15592;53.656;7.276;2022-11-20T09:06:23;3.00;99.90
28336;DHT22;15592;53.656;7.276;2022-11-20T09:08:52;3.10;99.90
28336;DHT22;15592;53.656;7.276;2022-11-20T09:11:18;3.10;99.90
28336;DHT22;15592;53.656;7.276;2022-11-20T09:13:44;3.10;99.90
28336;DHT22;15592;53.656;7.276;2022-11-20T09:16:09;3.20;99.90
28336;DHT22;15592;53.656;7.276;2022-11-20T09:18:36;3.20;99.90
28336;DHT22;15592;53.656;7.276;2022-11-20T09:21:05;3.20;99.90
28336;DHT22;15592;53.656;7.276;2022-11-20T09:23:33;3.30;99.90
28336;DHT22;15592;53.656;7.276;2022-11-20T09:26:03;3.30;99.90
28336;DHT22;15592;53.656;7.276;2022-11-20T09:28:29;3.30;99.90
28336;DHT22;15592;53.656;7.276;2022-11-20T09:30:55;3.30;99.90
28336;DHT22;15592;53.656;7.276;2022-11-20T09:33:21;3.30;99.90
28336;DHT22;15592;53.656;7.276;2022-11-20T09:35:46;3.40;99.90
28336;DHT22;15592;53.656;7.276;2022-11-20T09:38:12;3.40;99.90
28336;DHT22;15592;53.656;7.276;2022-11-20T09:40:45;3.50;99.90
28336;DHT22;15592;53.656;7.276;2022-11-20T09:43:17;3.50;99.90
28336;DHT22;15592;53.656;7.276;2022-11-20T09:48:55;3.60;99.90
28336;DHT22;15592;53.656;7.276;2022-11-20T09:51:39;3.70;99.90
28336;DHT22;15592;53.656;7.276;2022-11-20T09:54:22;3.70;99.90
28336;DHT22;15592;53.656;7.276;2022-11-20T09:56:55;3.70;99.90
28336;DHT22;15592;53.656;7.276;2022-11-20T10:01:56;3.70;99.90
28336;DHT22;15592;53.656;7.276;2022-11-20T10:04:24;3.70;99.90
28336;DHT22;15592;53.656;7.276;2022-11-20T10:07:52;3.70;99.90
28336;DHT22;15592;53.656;7.276;2022-11-20T10:09:58;3.80;99.90
28336;DHT22;15592;53.656;7.276;2022-11-20T10:31:42;4.00;99.90
28336;DHT22;15592;53.656;7.276;2022-11-20T10:34:23;4.00;99.90
28336;DHT22;15592;53.656;7.276;2022-11-20T10:36:58;4.10;99.90
28336;DHT22;15592;53.656;7.276;2022-11-20T10:39:37;4.10;99.90
28336;DHT22;15592;53.656;7.276;2022-11-20T10:42:11;4.10;99.90
28336;DHT22;15592;53.656;7.276;2022-11-20T10:44:46;4.00;99.90
28336;DHT22;15592;53.656;7.276;2022-11-20T10:47:30;4.10;99.90
28336;DHT22;15592;53.656;7.276;2022-11-20T10:50:01;4.10;99.90
28336;DHT22;15592;53.656;7.276;2022-11-20T11:00:34;4.10;99.90
28336;DHT22;15592;53.656;7.276;2022-11-20T11:02:59;4.10;99.90
28336;DHT22;15592;53.656;7.276;2022-11-20T11:06:00;4.10;99.90
28336;DHT22;15592;53.656;7.276;2022-11-20T11:08:53;4.10;99.90
28336;DHT22;15592;53.656;7.276;2022-11-20T11:25:39;4.10;99.90
28336;DHT22;15592;53.656;7.276;2022-11-20T11:30:44;4.10;99.90
28336;DHT22;15592;53.656;7.276;2022-11-20T11:33:18;4.10;99.90
28336;DHT22;15592;53.656;7.276;2022-11-20T11:35:49;4.10;99.90
28336;DHT22;15592;53.656;7.276;2022-11-20T11:38:22;4.10;99.90
28336;DHT22;15592;53.656;7.276;2022-11-20T11:40:49;4.10;99.90
28336;DHT22;15592;53.656;7.276;2022-11-20T11:43:24;4.10;99.90
28336;DHT22;15592;53.656;7.276;2022-11-20T11:46:31;4.10;99.90
28336;DHT22;15592;53.656;7.276;2022-11-20T11:51:46;4.00;99.90
28336;DHT22;15592;53.656;7.276;2022-11-20T11:54:20;3.90;99.90
28336;DHT22;15592;53.656;7.276;2022-11-20T11:56:48;3.90;99.90
28336;DHT22;15592;53.656;7.276;2022-11-20T11:59:29;3.90;99.90
28336;DHT22;15592;53.656;7.276;2022-11-20T12:02:02;3.80;99.90
28336;DHT22;15592;53.656;7.276;2022-11-20T12:04:46;3.80;99.90
28336;DHT22;15592;53.656;7.276;2022-11-20T12:07:20;3.80;99.90
28336;DHT22;15592;53.656;7.276;2022-11-20T12:09:52;3.80;99.90
28336;DHT22;15592;53.656;7.276;2022-11-20T12:12:19;3.90;99.90
28336;DHT22;15592;53.656;7.276;2022-11-20T12:14:47;3.90;99.90
28336;DHT22;15592;53.656;7.276;2022-11-20T12:17:15;3.90;99.90
28336;DHT22;15592;53.656;7.276;2022-11-20T12:19:41;4.00;99.90
28336;DHT22;15592;53.656;7.276;2022-11-20T12:25:30;4.10;99.90
28336;DHT22;15592;53.656;7.276;2022-11-20T12:30:28;4.10;99.90
28336;DHT22;15592;53.656;7.276;2022-11-20T12:36:58;4.00;99.90
28336;DHT22;15592;53.656;7.276;2022-11-20T12:39:49;4.00;99.90
28336;DHT22;15592;53.656;7.276;2022-11-20T12:42:22;4.00;99.90
28336;DHT22;15592;53.656;7.276;2022-11-20T13:02:23;3.90;99.90
28336;DHT22;15592;53.656;7.276;2022-11-20T13:08:04;3.90;99.90
28336;DHT22;15592;53.656;7.276;2022-11-20T13:13:42;3.80;99.90
28336;DHT22;15592;53.656;7.276;2022-11-20T13:16:19;3.80;99.90
28336;DHT22;15592;53.656;7.276;2022-11-20T13:18:50;3.80;99.90
28336;DHT22;15592;53.656;7.276;2022-11-20T13:21:35;3.80;99.90
28336;DHT22;15592;53.656;7.276;2022-11-20T13:24:27;3.90;99.90
28336;DHT22;15592;53.656;7.276;2022-11-20T13:29:35;3.90;99.90
28336;DHT22;15592;53.656;7.276;2022-11-20T13:34:39;4.00;99.90
28336;DHT22;15592;53.656;7.276;2022-11-20T13:37:05;4.00;99.90
28336;DHT22;15592;53.656;7.276;2022-11-20T13:39:39;4.00;99.90
28336;DHT22;15592;53.656;7.276;2022-11-20T13:44:46;4.00;99.90
28336;DHT22;15592;53.656;7.276;2022-11-20T13:47:24;4.00;99.90
28336;DHT22;15592;53.656;7.276;2022-11-20T13:49:52;4.00;99.90
28336;DHT22;15592;53.656;7.276;2022-11-20T13:55:16;4.00;99.90
28336;DHT22;15592;53.656;7.276;2022-11-20T14:00:25;3.90;99.90
28336;DHT22;15592;53.656;7.276;2022-11-20T14:05:34;3.90;99.90
28336;DHT22;15592;53.656;7.276;2022-11-20T14:08:03;3.90;99.90
28336;DHT22;15592;53.656;7.276;2022-11-20T14:10:31;3.90;99.90
28336;DHT22;15592;53.656;7.276;2022-11-20T14:13:20;3.90;99.90
28336;DHT22;15592;53.656;7.276;2022-11-20T14:15:45;3.80;99.90
28336;DHT22;15592;53.656;7.276;2022-11-20T14:18:14;3.80;99.90
28336;DHT22;15592;53.656;7.276;2022-11-20T14:20:42;3.90;99.90
28336;DHT22;15592;53.656;7.276;2022-11-20T14:23:10;3.80;99.90
28336;DHT22;15592;53.656;7.276;2022-11-20T14:25:42;3.90;99.90
28336;DHT22;15592;53.656;7.276;2022-11-20T14:28:20;3.90;99.90
28336;DHT22;15592;53.656;7.276;2022-11-20T14:30:48;3.90;99.90
28336;DHT22;15592;53.656;7.276;2022-11-20T14:33:17;3.90;99.90
28336;DHT22;15592;53.656;7.276;2022-11-20T14:35:50;3.80;99.90
28336;DHT22;15592;53.656;7.276;2022-11-20T14:38:19;3.80;99.90
28336;DHT22;15592;53.656;7.276;2022-11-20T14:40:45;3.80;99.90
28336;DHT22;15592;53.656;7.276;2022-11-20T14:43:24;3.70;99.90
28336;DHT22;15592;53.656;7.276;2022-11-20T14:46:02;3.70;99.90
28336;DHT22;15592;53.656;7.276;2022-11-20T14:48:51;3.60;99.90
28336;DHT22;15592;53.656;7.276;2022-11-20T14:51:37;3.60;99.90
28336;DHT22;15592;53.656;7.276;2022-11-20T14:54:18;3.50;99.90
28336;DHT22;15592;53.656;7.276;2022-11-20T15:06:53;3.30;99.90
28336;DHT22;15592;53.656;7.276;2022-11-20T15:09:22;3.30;99.90
28336;DHT22;15592;53.656;7.276;2022-11-20T15:11:58;3.30;99.90
28336;DHT22;15592;53.656;7.276;2022-11-20T15:14:36;3.30;99.90
28336;DHT22;15592;53.656;7.276;2022-11-20T15:17:02;3.30;99.90
28336;DHT22;15592;53.656;7.276;2022-11-20T15:20:04;3.30;99.90
28336;DHT22;15592;53.656;7.276;2022-11-20T15:22:34;3.30;99.90
28336;DHT22;15592;53.656;7.276;2022-11-20T15:24:59;3.30;99.90
28336;DHT22;15592;53.656;7.276;2022-11-20T15:27:25;3.30;99.90
28336;DHT22;15592;53.656;7.276;2022-11-20T15:29:50;3.30;99.90
28336;DHT22;15592;53.656;7.276;2022-11-20T15:32:16;3.20;99.90
28336;DHT22;15592;53.656;7.276;2022-11-20T15:34:42;3.20;99.90
28336;DHT22;15592;53.656;7.276;2022-11-20T15:37:10;3.10;99.90
28336;DHT22;15592;53.656;7.276;2022-11-20T15:39:38;3.10;99.90
28336;DHT22;15592;53.656;7.276;2022-11-20T15:42:04;3.00;99.90
28336;DHT22;15592;53.656;7.276;2022-11-20T15:44:30;2.90;99.90
28336;DHT22;15592;53.656;7.276;2022-11-20T15:46:55;2.80;99.90
28336;DHT22;15592;53.656;7.276;2022-11-20T15:49:21;2.90;99.90
28336;DHT22;15592;53.656;7.276;2022-11-20T15:51:49;2.80;99.90
28336;DHT22;15592;53.656;7.276;2022-11-20T15:54:17;2.70;99.90
28336;DHT22;15592;53.656;7.276;2022-11-20T15:56:48;2.70;99.90
28336;DHT22;15592;53.656;7.276;2022-11-20T15:59:20;2.70;99.90
28336;DHT22;15592;53.656;7.276;2022-11-20T16:02:17;2.60;99.90
28336;DHT22;15592;53.656;7.276;2022-11-20T16:04:43;2.60;99.90
28336;DHT22;15592;53.656;7.276;2022-11-20T16:07:09;2.60;99.90
28336;DHT22;15592;53.656;7.276;2022-11-20T16:09:34;2.60;99.90
28336;DHT22;15592;53.656;7.276;2022-11-20T16:12:00;2.60;99.90
28336;DHT22;15592;53.656;7.276;2022-11-20T16:14:26;2.60;99.90
28336;DHT22;15592;53.656;7.276;2022-11-20T16:17:11;2.60;99.90
28336;DHT22;15592;53.656;7.276;2022-11-20T16:19:48;2.50;99.90
28336;DHT22;15592;53.656;7.276;2022-11-20T16:22:42;2.50;99.90
28336;DHT22;15592;53.656;7.276;2022-11-20T16:25:08;2.40;99.90
28336;DHT22;15592;53.656;7.276;2022-11-20T16:31:14;2.40;99.90
28336;DHT22;15592;53.656;7.276;2022-11-20T16:34:05;2.40;99.90
28336;DHT22;15592;53.656;7.276;2022-11-20T16:39:07;2.40;99.90
28336;DHT22;15592;53.656;7.276;2022-11-20T16:41:34;2.50;99.90
28336;DHT22;15592;53.656;7.276;2022-11-20T16:44:02;2.50;99.90
28336;DHT22;15592;53.656;7.276;2022-11-20T16:46:31;2.50;99.90
28336;DHT22;15592;53.656;7.276;2022-11-20T16:48:58;2.50;99.90
28336;DHT22;15592;53.656;7.276;2022-11-20T16:52:05;2.50;99.90
28336;DHT22;15592;53.656;7.276;2022-11-20T16:54:31;2.50;99.90
28336;DHT22;15592;53.656;7.276;2022-11-20T16:56:56;2.50;99.90
28336;DHT22;15592;53.656;7.276;2022-11-20T16:59:45;2.50;99.90
28336;DHT22;15592;53.656;7.276;2022-11-20T17:02:14;2.50;99.90
28336;DHT22;15592;53.656;7.276;2022-11-20T17:04:40;2.50;99.90
28336;DHT22;15592;53.656;7.276;2022-11-20T17:07:06;2.50;99.90
28336;DHT22;15592;53.656;7.276;2022-11-20T17:09:32;2.50;99.90
28336;DHT22;15592;53.656;7.276;2022-11-20T17:11:58;2.50;99.90
28336;DHT22;15592;53.656;7.276;2022-11-20T17:14:24;2.50;99.90
28336;DHT22;15592;53.656;7.276;2022-11-20T17:20:15;2.40;99.90
28336;DHT22;15592;53.656;7.276;2022-11-20T17:22:41;2.40;99.90
28336;DHT22;15592;53.656;7.276;2022-11-20T17:25:07;2.40;99.90
28336;DHT22;15592;53.656;7.276;2022-11-20T17:27:33;2.40;99.90
28336;DHT22;15592;53.656;7.276;2022-11-20T17:29:58;2.40;99.90
28336;DHT22;15592;53.656;7.276;2022-11-20T17:32:24;2.50;99.90
28336;DHT22;15592;53.656;7.276;2022-11-20T17:34:50;2.50;99.90
28336;DHT22;15592;53.656;7.276;2022-11-20T17:37:15;2.50;99.90
28336;DHT22;15592;53.656;7.276;2022-11-20T17:39:41;2.50;99.90
28336;DHT22;15592;53.656;7.276;2022-11-20T17:42:07;2.50;99.90
28336;DHT22;15592;53.656;7.276;2022-11-20T17:44:51;2.50;99.90
28336;DHT22;15592;53.656;7.276;2022-11-20T17:47:16;2.50;99.90
28336;DHT22;15592;53.656;7.276;2022-11-20T17:49:42;2.50;99.90
28336;DHT22;15592;53.656;7.276;2022-11-20T17:52:07;2.50;99.90
28336;DHT22;15592;53.656;7.276;2022-11-20T17:54:33;2.50;99.90
28336;DHT22;15592;53.656;7.276;2022-11-20T17:56:58;2.50;99.90
28336;DHT22;15592;53.656;7.276;2022-11-20T17:59:43;2.50;99.90
28336;DHT22;15592;53.656;7.276;2022-11-20T18:02:09;2.50;99.90
28336;DHT22;15592;53.656;7.276;2022-11-20T18:04:35;2.50;99.90
28336;DHT22;15592;53.656;7.276;2022-11-20T18:07:01;2.50;99.90
28336;DHT22;15592;53.656;7.276;2022-11-20T18:09:27;2.50;99.90